sensor_id;sensor_type;location;lat;lon;timestamp;temperature;humidity
15717;DHT22;7960;50.908;4.204;2022-11-18T00:01:10;9.30;99.90
15717;DHT22;7960;50.908;4.204;2022-11-18T00:03:38;9.30;99.90
15717;DHT22;7960;50.908;4.204;2022-11-18T00:06:06;9.30;99.90
15717;DHT22;7960;50.908;4.204;2022-11-18T00:08:33;9.30;99.90
15717;DHT22;7960;50.908;4.204;2022-11-18T00:11:04;9.30;99.90
15717;DHT22;7960;50.908;4.204;2022-11-18T00:13:31;9.30;99.90
15717;DHT22;7960;50.908;4.204;2022-11-18T00:16:16;9.30;99.90
15717;DHT22;7960;50.908;4.204;2022-11-18T00:18:43;9.40;99.90
15717;DHT22;7960;50.908;4.204;2022-11-18T00:21:11;9.40;99.90
15717;DHT22;7960;50.908;4.204;2022-11-18T00:23:38;9.40;99.90
15717;DHT22;7960;50.908;4.204;2022-11-18T00:26:08;9.40;99.90
15717;DHT22;7960;50.908;4.204;2022-11-18T00:28:35;9.40;99.90
15717;DHT22;7960;50.908;4.204;2022-11-18T00:31:04;9.50;99.90
15717;DHT22;7960;50.908;4.204;2022-11-18T00:33:33;9.50;99.90
15717;DHT22;7960;50.908;4.204;2022-11-18T00:36:01;9.50;99.90
15717;DHT22;7960;50.908;4.204;2022-11-18T00:38:29;9.40;99.90
15717;DHT22;7960;50.908;4.204;2022-11-18T00:41:00;9.40;99.90
15717;DHT22;7960;50.908;4.204;2022-11-18T00:43:27;9.40;99.90
15717;DHT22;7960;50.908;4.204;2022-11-18T00:45:53;9.40;99.90
15717;DHT22;7960;50.908;4.204;2022-11-18T00:48:20;9.40;99.90
15717;DHT22;7960;50.908;4.204;2022-11-18T00:50:49;9.40;99.90
15717;DHT22;7960;50.908;4.204;2022-11-18T00:53:17;9.40;99.90
15717;DHT22;7960;50.908;4.204;2022-11-18T00:55:44;9.40;99.90
15717;DHT22;7960;50.908;4.204;2022-11-18T00:58:11;9.50;99.90
15717;DHT22;7960;50.908;4.204;2022-11-18T01:00:40;9.50;99.90
15717;DHT22;7960;50.908;4.204;2022-11-18T01:03:08;9.30;99.90
15717;DHT22;7960;50.908;4.204;2022-11-18T01:05:35;9.30;99.90
15717;DHT22;7960;50.908;4.204;2022-11-18T01:08:04;9.30;99.90
15717;DHT22;7960;50.908;4.204;2022-11-18T01:10:31;9.30;99.90
15717;DHT22;7960;50.908;4.204;2022-11-18T01:12:58;9.20;99.90
15717;DHT22;7960;50.908;4.204;2022-11-18T01:15:44;9.20;99.90
15717;DHT22;7960;50.908;4.204;2022-11-18T01:18:11;9.20;99.90
15717;DHT22;7960;50.908;4.204;2022-11-18T01:20:38;9.10;99.90
15717;DHT22;7960;50.908;4.204;2022-11-18T01:23:06;9.10;99.90
15717;DHT22;7960;50.908;4.204;2022-11-18T01:25:34;9.10;99.90
15717;DHT22;7960;50.908;4.204;2022-11-18T01:28:01;9.10;99.90
15717;DHT22;7960;50.908;4.204;2022-11-18T01:30:28;9.00;99.90
15717;DHT22;7960;50.908;4.204;2022-11-18T01:32:55;8.90;99.90
15717;DHT22;7960;50.908;4.204;2022-11-18T01:35:23;8.90;99.90
15717;DHT22;7960;50.908;4.204;2022-11-18T01:37:50;9.00;99.90
15717;DHT22;7960;50.908;4.204;2022-11-18T01:40:18;9.00;99.90
15717;DHT22;7960;50.908;4.204;2022-11-18T01:42:45;8.90;99.90
15717;DHT22;7960;50.908;4.204;2022-11-18T01:45:20;8.90;99.90
15717;DHT22;7960;50.908;4.204;2022-11-18T01:47:54;8.90;99.90
15717;DHT22;7960;50.908;4.204;2022-11-18T01:50:23;8.90;99.90
15717;DHT22;7960;50.908;4.204;2022-11-18T01:52:51;8.90;99.90
15717;DHT22;7960;50.908;4.204;2022-11-18T01:55:25;8.90;99.90
15717;DHT22;7960;50.908;4.204;2022-11-18T01:57:57;8.90;99.90
15717;DHT22;7960;50.908;4.204;2022-11-18T02:00:26;8.90;99.90
15717;DHT22;7960;50.908;4.204;2022-11-18T02:02:53;8.90;99.90
15717;DHT22;7960;50.908;4.204;2022-11-18T02:05:20;8.90;99.90
15717;DHT22;7960;50.908;4.204;2022-11-18T02:07:48;8.90;99.90
15717;DHT22;7960;50.908;4.204;2022-11-18T02:10:18;8.90;99.90
15717;DHT22;7960;50.908;4.204;2022-11-18T02:12:48;8.80;99.90
15717;DHT22;7960;50.908;4.204;2022-11-18T02:15:16;8.90;99.90
15717;DHT22;7960;50.908;4.204;2022-11-18T02:17:51;8.80;99.90
15717;DHT22;7960;50.908;4.204;2022-11-18T02:20:30;8.80;99.90
15717;DHT22;7960;50.908;4.204;2022-11-18T02:26:23;8.80;99.90
15717;DHT22;7960;50.908;4.204;2022-11-18T02:29:06;8.80;99.90
15717;DHT22;7960;50.908;4.204;2022-11-18T02:31:40;8.80;99.90
15717;DHT22;7960;50.908;4.204;2022-11-18T02:34:16;8.70;99.90
15717;DHT22;7960;50.908;4.204;2022-11-18T02:36:49;8.70;99.90
15717;DHT22;7960;50.908;4.204;2022-11-18T02:39:22;8.70;99.90
15717;DHT22;7960;50.908;4.204;2022-11-18T02:41:53;8.50;99.90
15717;DHT22;7960;50.908;4.204;2022-11-18T02:44:24;8.50;99.90
15717;DHT22;7960;50.908;4.204;2022-11-18T02:46:55;8.60;99.90
15717;DHT22;7960;50.908;4.204;2022-11-18T02:49:27;8.60;99.90
15717;DHT22;7960;50.908;4.204;2022-11-18T02:51:57;8.60;99.90
15717;DHT22;7960;50.908;4.204;2022-11-18T02:54:26;8.50;99.90
15717;DHT22;7960;50.908;4.204;2022-11-18T02:56:54;8.50;99.90
15717;DHT22;7960;50.908;4.204;2022-11-18T02:59:22;8.50;99.90
15717;DHT22;7960;50.908;4.204;2022-11-18T03:01:49;8.50;99.90
15717;DHT22;7960;50.908;4.204;2022-11-18T03:04:17;8.50;99.90
15717;DHT22;7960;50.908;4.204;2022-11-18T03:06:47;8.40;99.90
15717;DHT22;7960;50.908;4.204;2022-11-18T03:09:19;8.40;99.90
15717;DHT22;7960;50.908;4.204;2022-11-18T03:11:52;8.40;99.90
15717;DHT22;7960;50.908;4.204;2022-11-18T03:14:33;8.30;99.90
15717;DHT22;7960;50.908;4.204;2022-11-18T03:17:09;8.30;99.90
15717;DHT22;7960;50.908;4.204;2022-11-18T03:19:48;8.30;99.90
15717;DHT22;7960;50.908;4.204;2022-11-18T03:22:22;8.20;99.90
15717;DHT22;7960;50.908;4.204;2022-11-18T03:24:54;8.20;99.90
15717;DHT22;7960;50.908;4.204;2022-11-18T03:27:26;8.20;99.90
15717;DHT22;7960;50.908;4.204;2022-11-18T03:29:59;8.20;99.90
15717;DHT22;7960;50.908;4.204;2022-11-18T03:32:29;8.20;99.90
15717;DHT22;7960;50.908;4.204;2022-11-18T03:35:00;8.30;99.90
15717;DHT22;7960;50.908;4.204;2022-11-18T03:37:28;8.20;99.90
15717;DHT22;7960;50.908;4.204;2022-11-18T03:40:01;8.10;99.90
15717;DHT22;7960;50.908;4.204;2022-11-18T03:42:33;8.00;99.90
15717;DHT22;7960;50.908;4.204;2022-11-18T03:45:05;8.10;99.90
15717;DHT22;7960;50.908;4.204;2022-11-18T03:47:34;8.00;99.90
15717;DHT22;7960;50.908;4.204;2022-11-18T03:50:06;8.10;99.90
15717;DHT22;7960;50.908;4.204;2022-11-18T03:52:38;8.20;99.90
15717;DHT22;7960;50.908;4.204;2022-11-18T03:55:12;8.10;99.90
15717;DHT22;7960;50.908;4.204;2022-11-18T03:57:44;8.10;99.90
15717;DHT22;7960;50.908;4.204;2022-11-18T04:00:15;8.10;99.90
15717;DHT22;7960;50.908;4.204;2022-11-18T04:02:46;8.10;99.90
15717;DHT22;7960;50.908;4.204;2022-11-18T04:05:15;8.00;99.90
15717;DHT22;7960;50.908;4.204;2022-11-18T04:07:51;8.00;99.90
15717;DHT22;7960;50.908;4.204;2022-11-18T04:10:22;8.00;99.90
15717;DHT22;7960;50.908;4.204;2022-11-18T04:12:53;8.10;99.90
15717;DHT22;7960;50.908;4.204;2022-11-18T04:15:23;8.00;99.90
15717;DHT22;7960;50.908;4.204;2022-11-18T04:17:50;8.10;99.90
15717;DHT22;7960;50.908;4.204;2022-11-18T04:20:20;8.00;99.90
15717;DHT22;7960;50.908;4.204;2022-11-18T04:22:47;8.10;99.90
15717;DHT22;7960;50.908;4.204;2022-11-18T04:25:14;8.00;99.90
15717;DHT22;7960;50.908;4.204;2022-11-18T04:27:41;7.90;99.90
15717;DHT22;7960;50.908;4.204;2022-11-18T04:30:10;7.90;99.90
15717;DHT22;7960;50.908;4.204;2022-11-18T04:32:38;7.90;99.90
15717;DHT22;7960;50.908;4.204;2022-11-18T04:35:05;8.00;99.90
15717;DHT22;7960;50.908;4.204;2022-11-18T04:37:32;8.00;99.90
15717;DHT22;7960;50.908;4.204;2022-11-18T04:39:59;7.90;99.90
15717;DHT22;7960;50.908;4.204;2022-11-18T04:42:27;7.90;99.90
15717;DHT22;7960;50.908;4.204;2022-11-18T04:44:53;7.90;99.90
15717;DHT22;7960;50.908;4.204;2022-11-18T04:47:21;7.90;99.90
15717;DHT22;7960;50.908;4.204;2022-11-18T04:49:49;7.90;99.90
15717;DHT22;7960;50.908;4.204;2022-11-18T04:52:16;7.90;99.90
15717;DHT22;7960;50.908;4.204;2022-11-18T04:54:43;7.90;99.90
15717;DHT22;7960;50.908;4.204;2022-11-18T04:57:10;7.90;99.90
15717;DHT22;7960;50.908;4.204;2022-11-18T04:59:37;7.90;99.90
15717;DHT22;7960;50.908;4.204;2022-11-18T05:02:04;7.90;99.90
15717;DHT22;7960;50.908;4.204;2022-11-18T05:04:32;7.80;99.90
15717;DHT22;7960;50.908;4.204;2022-11-18T05:07:02;7.80;99.90
15717;DHT22;7960;50.908;4.204;2022-11-18T05:09:29;7.80;99.90
15717;DHT22;7960;50.908;4.204;2022-11-18T05:11:56;7.90;99.90
15717;DHT22;7960;50.908;4.204;2022-11-18T05:14:40;7.80;99.90
15717;DHT22;7960;50.908;4.204;2022-11-18T05:17:08;7.90;99.90
15717;DHT22;7960;50.908;4.204;2022-11-18T05:19:37;7.90;99.90
15717;DHT22;7960;50.908;4.204;2022-11-18T05:22:06;7.90;99.90
15717;DHT22;7960;50.908;4.204;2022-11-18T05:24:33;7.80;99.90
15717;DHT22;7960;50.908;4.204;2022-11-18T05:27:00;7.80;99.90
15717;DHT22;7960;50.908;4.204;2022-11-18T05:29:27;7.80;99.90
15717;DHT22;7960;50.908;4.204;2022-11-18T05:31:53;7.70;99.90
15717;DHT22;7960;50.908;4.204;2022-11-18T05:34:20;7.80;99.90
15717;DHT22;7960;50.908;4.204;2022-11-18T05:36:47;7.90;99.90
15717;DHT22;7960;50.908;4.204;2022-11-18T05:39:16;7.80;99.90
15717;DHT22;7960;50.908;4.204;2022-11-18T05:41:42;7.80;99.90
15717;DHT22;7960;50.908;4.204;2022-11-18T05:44:26;7.80;99.90
15717;DHT22;7960;50.908;4.204;2022-11-18T05:46:53;7.90;99.90
15717;DHT22;7960;50.908;4.204;2022-11-18T05:49:21;7.80;99.90
15717;DHT22;7960;50.908;4.204;2022-11-18T05:51:48;7.70;99.90
15717;DHT22;7960;50.908;4.204;2022-11-18T05:54:18;7.70;99.90
15717;DHT22;7960;50.908;4.204;2022-11-18T05:56:45;7.70;99.90
15717;DHT22;7960;50.908;4.204;2022-11-18T05:59:13;7.70;99.90
15717;DHT22;7960;50.908;4.204;2022-11-18T06:01:43;7.70;99.90
15717;DHT22;7960;50.908;4.204;2022-11-18T06:04:13;7.80;99.90
15717;DHT22;7960;50.908;4.204;2022-11-18T06:06:42;7.70;99.90
15717;DHT22;7960;50.908;4.204;2022-11-18T06:09:09;7.70;99.90
15717;DHT22;7960;50.908;4.204;2022-11-18T06:11:42;7.60;99.90
15717;DHT22;7960;50.908;4.204;2022-11-18T06:14:13;7.60;99.90
15717;DHT22;7960;50.908;4.204;2022-11-18T06:16:44;7.60;99.90
15717;DHT22;7960;50.908;4.204;2022-11-18T06:19:13;7.60;99.90
15717;DHT22;7960;50.908;4.204;2022-11-18T06:21:40;7.50;99.90
15717;DHT22;7960;50.908;4.204;2022-11-18T06:24:08;7.50;99.90
15717;DHT22;7960;50.908;4.204;2022-11-18T06:26:35;7.50;99.90
15717;DHT22;7960;50.908;4.204;2022-11-18T06:29:06;7.40;99.90
15717;DHT22;7960;50.908;4.204;2022-11-18T06:31:34;7.40;99.90
15717;DHT22;7960;50.908;4.204;2022-11-18T06:34:01;7.40;99.90
15717;DHT22;7960;50.908;4.204;2022-11-18T06:36:29;7.50;99.90
15717;DHT22;7960;50.908;4.204;2022-11-18T06:39:01;7.40;99.90
15717;DHT22;7960;50.908;4.204;2022-11-18T06:41:28;7.40;99.90
15717;DHT22;7960;50.908;4.204;2022-11-18T06:43:55;7.50;99.90
15717;DHT22;7960;50.908;4.204;2022-11-18T06:46:22;7.60;99.90
15717;DHT22;7960;50.908;4.204;2022-11-18T06:49:07;7.60;99.90
15717;DHT22;7960;50.908;4.204;2022-11-18T06:51:34;7.70;99.90
15717;DHT22;7960;50.908;4.204;2022-11-18T06:54:01;7.70;99.90
15717;DHT22;7960;50.908;4.204;2022-11-18T06:56:28;7.70;99.90
15717;DHT22;7960;50.908;4.204;2022-11-18T06:58:56;7.70;99.90
15717;DHT22;7960;50.908;4.204;2022-11-18T07:01:26;7.70;99.90
15717;DHT22;7960;50.908;4.204;2022-11-18T07:03:53;7.70;99.90
15717;DHT22;7960;50.908;4.204;2022-11-18T07:06:22;7.70;99.90
15717;DHT22;7960;50.908;4.204;2022-11-18T07:08:50;7.80;99.90
15717;DHT22;7960;50.908;4.204;2022-11-18T07:11:18;7.80;99.90
15717;DHT22;7960;50.908;4.204;2022-11-18T07:13:46;7.90;99.90
15717;DHT22;7960;50.908;4.204;2022-11-18T07:16:15;7.90;99.90
15717;DHT22;7960;50.908;4.204;2022-11-18T07:18:45;7.90;99.90
15717;DHT22;7960;50.908;4.204;2022-11-18T07:21:14;8.00;99.90
15717;DHT22;7960;50.908;4.204;2022-11-18T07:23:42;8.00;99.90
15717;DHT22;7960;50.908;4.204;2022-11-18T07:26:09;8.00;99.90
15717;DHT22;7960;50.908;4.204;2022-11-18T07:28:36;8.10;99.90
15717;DHT22;7960;50.908;4.204;2022-11-18T07:31:04;8.10;99.90
15717;DHT22;7960;50.908;4.204;2022-11-18T07:33:32;8.20;99.90
15717;DHT22;7960;50.908;4.204;2022-11-18T07:36:01;8.10;99.90
15717;DHT22;7960;50.908;4.204;2022-11-18T07:38:29;8.20;99.90
15717;DHT22;7960;50.908;4.204;2022-11-18T07:41:03;8.30;99.90
15717;DHT22;7960;50.908;4.204;2022-11-18T07:43:31;8.30;99.90
15717;DHT22;7960;50.908;4.204;2022-11-18T07:45:57;8.40;99.90
15717;DHT22;7960;50.908;4.204;2022-11-18T07:48:25;8.40;99.90
15717;DHT22;7960;50.908;4.204;2022-11-18T07:50:51;8.40;99.90
15717;DHT22;7960;50.908;4.204;2022-11-18T07:53:20;8.40;99.90
15717;DHT22;7960;50.908;4.204;2022-11-18T07:55:47;8.40;99.90
15717;DHT22;7960;50.908;4.204;2022-11-18T07:58:14;8.40;99.90
15717;DHT22;7960;50.908;4.204;2022-11-18T08:00:41;8.40;99.90
15717;DHT22;7960;50.908;4.204;2022-11-18T08:03:08;8.50;99.90
15717;DHT22;7960;50.908;4.204;2022-11-18T08:05:35;8.50;99.90
15717;DHT22;7960;50.908;4.204;2022-11-18T08:08:01;8.50;99.90
15717;DHT22;7960;50.908;4.204;2022-11-18T08:10:33;8.50;99.90
15717;DHT22;7960;50.908;4.204;2022-11-18T08:12:59;8.60;99.90
15717;DHT22;7960;50.908;4.204;2022-11-18T08:15:26;8.60;99.90
15717;DHT22;7960;50.908;4.204;2022-11-18T08:17:53;8.60;99.90
15717;DHT22;7960;50.908;4.204;2022-11-18T08:20:20;8.60;99.90
15717;DHT22;7960;50.908;4.204;2022-11-18T08:22:51;8.60;99.90
15717;DHT22;7960;50.908;4.204;2022-11-18T08:25:18;8.60;99.90
15717;DHT22;7960;50.908;4.204;2022-11-18T08:27:46;8.70;99.90
15717;DHT22;7960;50.908;4.204;2022-11-18T08:30:13;8.60;99.90
15717;DHT22;7960;50.908;4.204;2022-11-18T08:32:40;8.60;99.90
15717;DHT22;7960;50.908;4.204;2022-11-18T08:35:08;8.60;99.90
15717;DHT22;7960;50.908;4.204;2022-11-18T08:37:35;8.60;99.90
15717;DHT22;7960;50.908;4.204;2022-11-18T08:40:03;8.60;99.90
15717;DHT22;7960;50.908;4.204;2022-11-18T08:42:31;8.60;99.90
15717;DHT22;7960;50.908;4.204;2022-11-18T08:44:59;8.70;99.90
15717;DHT22;7960;50.908;4.204;2022-11-18T08:47:26;8.70;99.90
15717;DHT22;7960;50.908;4.204;2022-11-18T08:49:52;8.80;99.90
15717;DHT22;7960;50.908;4.204;2022-11-18T08:52:19;8.70;99.90
15717;DHT22;7960;50.908;4.204;2022-11-18T08:54:46;8.80;99.90
15717;DHT22;7960;50.908;4.204;2022-11-18T08:57:13;8.90;99.90
15717;DHT22;7960;50.908;4.204;2022-11-18T08:59:40;8.90;99.90
15717;DHT22;7960;50.908;4.204;2022-11-18T09:02:13;9.00;99.90
15717;DHT22;7960;50.908;4.204;2022-11-18T09:04:40;9.00;99.90
15717;DHT22;7960;50.908;4.204;2022-11-18T09:07:08;9.00;99.90
15717;DHT22;7960;50.908;4.204;2022-11-18T09:09:35;9.00;99.90
15717;DHT22;7960;50.908;4.204;2022-11-18T09:12:02;9.00;99.90
15717;DHT22;7960;50.908;4.204;2022-11-18T09:14:30;9.00;99.90
15717;DHT22;7960;50.908;4.204;2022-11-18T09:16:57;9.10;99.90
15717;DHT22;7960;50.908;4.204;2022-11-18T09:19:27;9.10;99.90
15717;DHT22;7960;50.908;4.204;2022-11-18T09:21:54;9.10;99.90
15717;DHT22;7960;50.908;4.204;2022-11-18T09:24:20;9.10;99.90
15717;DHT22;7960;50.908;4.204;2022-11-18T09:26:50;9.10;99.90
15717;DHT22;7960;50.908;4.204;2022-11-18T09:29:18;9.10;99.90
15717;DHT22;7960;50.908;4.204;2022-11-18T09:31:49;9.20;99.90
15717;DHT22;7960;50.908;4.204;2022-11-18T09:34:16;9.20;99.90
15717;DHT22;7960;50.908;4.204;2022-11-18T09:36:44;9.20;99.90
15717;DHT22;7960;50.908;4.204;2022-11-18T09:39:11;9.20;99.90
15717;DHT22;7960;50.908;4.204;2022-11-18T09:41:46;9.30;99.90
15717;DHT22;7960;50.908;4.204;2022-11-18T09:44:28;9.30;99.90
15717;DHT22;7960;50.908;4.204;2022-11-18T09:47:06;9.20;99.90
15717;DHT22;7960;50.908;4.204;2022-11-18T09:49:40;9.30;99.90
15717;DHT22;7960;50.908;4.204;2022-11-18T09:52:16;9.40;99.90
15717;DHT22;7960;50.908;4.204;2022-11-18T09:54:44;9.40;99.90
15717;DHT22;7960;50.908;4.204;2022-11-18T09:57:14;9.50;99.90
15717;DHT22;7960;50.908;4.204;2022-11-18T09:59:41;9.50;99.90
15717;DHT22;7960;50.908;4.204;2022-11-18T10:05:14;9.60;99.90
15717;DHT22;7960;50.908;4.204;2022-11-18T10:07:53;9.60;99.90
15717;DHT22;7960;50.908;4.204;2022-11-18T10:10:26;9.60;99.90
15717;DHT22;7960;50.908;4.204;2022-11-18T10:13:01;9.60;99.90
15717;DHT22;7960;50.908;4.204;2022-11-18T10:15:34;9.60;99.90
15717;DHT22;7960;50.908;4.204;2022-11-18T10:18:15;9.70;99.90
15717;DHT22;7960;50.908;4.204;2022-11-18T10:20:50;9.80;99.90
15717;DHT22;7960;50.908;4.204;2022-11-18T10:23:27;9.80;99.90
15717;DHT22;7960;50.908;4.204;2022-11-18T10:25:55;9.90;99.90
15717;DHT22;7960;50.908;4.204;2022-11-18T10:28:24;10.00;99.90
15717;DHT22;7960;50.908;4.204;2022-11-18T10:31:03;9.90;99.90
15717;DHT22;7960;50.908;4.204;2022-11-18T10:33:30;9.90;99.90
15717;DHT22;7960;50.908;4.204;2022-11-18T10:39:11;9.80;99.90
15717;DHT22;7960;50.908;4.204;2022-11-18T10:41:42;9.80;99.90
15717;DHT22;7960;50.908;4.204;2022-11-18T10:44:32;9.80;99.90
15717;DHT22;7960;50.908;4.204;2022-11-18T10:47:28;9.80;99.90
15717;DHT22;7960;50.908;4.204;2022-11-18T10:49:57;9.80;99.90
15717;DHT22;7960;50.908;4.204;2022-11-18T10:52:25;9.80;99.90
15717;DHT22;7960;50.908;4.204;2022-11-18T10:55:17;9.80;99.90
15717;DHT22;7960;50.908;4.204;2022-11-18T10:57:45;9.80;99.90
15717;DHT22;7960;50.908;4.204;2022-11-18T11:00:38;9.80;99.90
15717;DHT22;7960;50.908;4.204;2022-11-18T11:03:35;9.90;99.90
15717;DHT22;7960;50.908;4.204;2022-11-18T11:06:27;9.90;99.90
15717;DHT22;7960;50.908;4.204;2022-11-18T11:08:57;9.90;99.90
15717;DHT22;7960;50.908;4.204;2022-11-18T11:11:29;9.90;99.90
15717;DHT22;7960;50.908;4.204;2022-11-18T11:14:16;9.90;99.90
15717;DHT22;7960;50.908;4.204;2022-11-18T11:16:55;9.90;99.90
15717;DHT22;7960;50.908;4.204;2022-11-18T11:19:33;10.00;99.90
15717;DHT22;7960;50.908;4.204;2022-11-18T11:22:01;10.00;99.90
15717;DHT22;7960;50.908;4.204;2022-11-18T11:24:28;10.10;99.90
15717;DHT22;7960;50.908;4.204;2022-11-18T11:27:09;10.20;99.90
15717;DHT22;7960;50.908;4.204;2022-11-18T11:36:02;10.30;99.90
15717;DHT22;7960;50.908;4.204;2022-11-18T11:38:52;10.30;99.90
15717;DHT22;7960;50.908;4.204;2022-11-18T11:41:21;10.30;99.90
15717;DHT22;7960;50.908;4.204;2022-11-18T11:44:00;10.20;99.90
15717;DHT22;7960;50.908;4.204;2022-11-18T11:46:36;10.20;99.90
15717;DHT22;7960;50.908;4.204;2022-11-18T11:49:16;10.20;99.90
15717;DHT22;7960;50.908;4.204;2022-11-18T11:51:49;10.20;99.90
15717;DHT22;7960;50.908;4.204;2022-11-18T11:54:39;10.10;99.90
15717;DHT22;7960;50.908;4.204;2022-11-18T11:57:14;10.10;99.90
15717;DHT22;7960;50.908;4.204;2022-11-18T11:59:51;10.20;99.90
15717;DHT22;7960;50.908;4.204;2022-11-18T12:02:39;10.20;99.90
15717;DHT22;7960;50.908;4.204;2022-11-18T12:05:17;10.20;99.90
15717;DHT22;7960;50.908;4.204;2022-11-18T12:07:50;10.20;99.90
15717;DHT22;7960;50.908;4.204;2022-11-18T12:10:44;10.20;99.90
15717;DHT22;7960;50.908;4.204;2022-11-18T12:13:20;10.20;99.90
15717;DHT22;7960;50.908;4.204;2022-11-18T12:16:00;10.20;99.90
15717;DHT22;7960;50.908;4.204;2022-11-18T12:18:34;10.20;99.90
15717;DHT22;7960;50.908;4.204;2022-11-18T12:21:03;10.20;99.90
15717;DHT22;7960;50.908;4.204;2022-11-18T12:23:31;10.20;99.90
15717;DHT22;7960;50.908;4.204;2022-11-18T12:26:04;10.20;99.90
15717;DHT22;7960;50.908;4.204;2022-11-18T12:28:34;10.20;99.90
15717;DHT22;7960;50.908;4.204;2022-11-18T12:31:30;10.20;99.90
15717;DHT22;7960;50.908;4.204;2022-11-18T12:34:28;10.20;99.90
15717;DHT22;7960;50.908;4.204;2022-11-18T12:36:56;10.10;99.90
15717;DHT22;7960;50.908;4.204;2022-11-18T12:39:47;10.20;99.90
15717;DHT22;7960;50.908;4.204;2022-11-18T12:42:47;10.20;99.90
15717;DHT22;7960;50.908;4.204;2022-11-18T12:45:57;10.20;99.90
15717;DHT22;7960;50.908;4.204;2022-11-18T12:48:33;10.20;99.90
15717;DHT22;7960;50.908;4.204;2022-11-18T12:51:01;10.30;99.90
15717;DHT22;7960;50.908;4.204;2022-11-18T12:53:32;10.30;99.90
15717;DHT22;7960;50.908;4.204;2022-11-18T12:56:09;10.40;99.90
15717;DHT22;7960;50.908;4.204;2022-11-18T12:58:36;10.40;99.90
15717;DHT22;7960;50.908;4.204;2022-11-18T13:01:09;10.50;99.90
15717;DHT22;7960;50.908;4.204;2022-11-18T13:03:38;10.40;99.90
15717;DHT22;7960;50.908;4.204;2022-11-18T13:06:15;10.50;99.90
15717;DHT22;7960;50.908;4.204;2022-11-18T13:08:50;10.60;99.90
15717;DHT22;7960;50.908;4.204;2022-11-18T13:11:18;10.60;99.90
15717;DHT22;7960;50.908;4.204;2022-11-18T13:14:04;10.70;99.90
15717;DHT22;7960;50.908;4.204;2022-11-18T13:16:49;10.70;99.90
15717;DHT22;7960;50.908;4.204;2022-11-18T13:19:35;10.70;99.90
15717;DHT22;7960;50.908;4.204;2022-11-18T13:22:03;10.80;99.90
15717;DHT22;7960;50.908;4.204;2022-11-18T13:24:49;10.70;99.90
15717;DHT22;7960;50.908;4.204;2022-11-18T13:27:27;10.80;99.90
15717;DHT22;7960;50.908;4.204;2022-11-18T13:30:02;10.80;99.90
15717;DHT22;7960;50.908;4.204;2022-11-18T13:32:30;10.90;99.90
15717;DHT22;7960;50.908;4.204;2022-11-18T13:35:09;11.00;99.90
15717;DHT22;7960;50.908;4.204;2022-11-18T13:37:47;11.00;99.90
15717;DHT22;7960;50.908;4.204;2022-11-18T13:40:18;11.00;99.90
15717;DHT22;7960;50.908;4.204;2022-11-18T13:42:45;11.10;99.90
15717;DHT22;7960;50.908;4.204;2022-11-18T13:45:13;11.20;99.90
15717;DHT22;7960;50.908;4.204;2022-11-18T13:47:43;11.20;99.90
15717;DHT22;7960;50.908;4.204;2022-11-18T13:50:18;11.20;99.90
15717;DHT22;7960;50.908;4.204;2022-11-18T13:52:52;11.20;99.90
15717;DHT22;7960;50.908;4.204;2022-11-18T13:55:24;11.30;99.90
15717;DHT22;7960;50.908;4.204;2022-11-18T13:57:55;11.30;99.90
15717;DHT22;7960;50.908;4.204;2022-11-18T14:00:27;11.30;99.90
15717;DHT22;7960;50.908;4.204;2022-11-18T14:02:56;11.30;99.90
15717;DHT22;7960;50.908;4.204;2022-11-18T14:05:26;11.30;99.90
15717;DHT22;7960;50.908;4.204;2022-11-18T14:08:02;11.30;99.90
15717;DHT22;7960;50.908;4.204;2022-11-18T14:10:38;11.30;99.90
15717;DHT22;7960;50.908;4.204;2022-11-18T14:13:17;11.40;99.90
15717;DHT22;7960;50.908;4.204;2022-11-18T14:15:45;11.40;99.90
15717;DHT22;7960;50.908;4.204;2022-11-18T14:18:22;11.40;99.90
15717;DHT22;7960;50.908;4.204;2022-11-18T14:20:53;11.30;99.90
15717;DHT22;7960;50.908;4.204;2022-11-18T14:23:28;11.30;99.90
15717;DHT22;7960;50.908;4.204;2022-11-18T14:25:56;11.30;99.90
15717;DHT22;7960;50.908;4.204;2022-11-18T14:28:26;11.30;99.90
15717;DHT22;7960;50.908;4.204;2022-11-18T14:31:02;11.30;99.90
15717;DHT22;7960;50.908;4.204;2022-11-18T14:33:30;11.30;99.90
15717;DHT22;7960;50.908;4.204;2022-11-18T14:35:59;11.30;99.90
15717;DHT22;7960;50.908;4.204;2022-11-18T14:38:37;11.30;99.90
15717;DHT22;7960;50.908;4.204;2022-11-18T14:41:07;11.30;99.90
15717;DHT22;7960;50.908;4.204;2022-11-18T14:43:34;11.30;99.90
15717;DHT22;7960;50.908;4.204;2022-11-18T14:46:04;11.40;99.90
15717;DHT22;7960;50.908;4.204;2022-11-18T14:48:31;11.40;99.90
15717;DHT22;7960;50.908;4.204;2022-11-18T14:50:59;11.20;99.90
15717;DHT22;7960;50.908;4.204;2022-11-18T14:53:26;11.20;99.90
15717;DHT22;7960;50.908;4.204;2022-11-18T14:55:57;11.10;99.90
15717;DHT22;7960;50.908;4.204;2022-11-18T14:58:24;11.20;99.90
15717;DHT22;7960;50.908;4.204;2022-11-18T15:00:51;11.20;99.90
15717;DHT22;7960;50.908;4.204;2022-11-18T15:03:18;11.10;99.90
15717;DHT22;7960;50.908;4.204;2022-11-18T15:05:45;11.10;99.90
15717;DHT22;7960;50.908;4.204;2022-11-18T15:08:13;11.00;99.90
15717;DHT22;7960;50.908;4.204;2022-11-18T15:10:41;10.90;99.90
15717;DHT22;7960;50.908;4.204;2022-11-18T15:13:08;11.00;99.90
15717;DHT22;7960;50.908;4.204;2022-11-18T15:15:37;11.00;99.90
15717;DHT22;7960;50.908;4.204;2022-11-18T15:18:05;11.00;99.90
15717;DHT22;7960;50.908;4.204;2022-11-18T15:20:32;10.90;99.90
15717;DHT22;7960;50.908;4.204;2022-11-18T15:22:58;10.90;99.90
15717;DHT22;7960;50.908;4.204;2022-11-18T15:25:27;10.90;99.90
15717;DHT22;7960;50.908;4.204;2022-11-18T15:27:53;10.90;99.90
15717;DHT22;7960;50.908;4.204;2022-11-18T15:30:20;10.90;99.90
15717;DHT22;7960;50.908;4.204;2022-11-18T15:32:47;10.90;99.90
15717;DHT22;7960;50.908;4.204;2022-11-18T15:35:14;10.90;99.90
15717;DHT22;7960;50.908;4.204;2022-11-18T15:37:41;10.80;99.90
15717;DHT22;7960;50.908;4.204;2022-11-18T15:40:08;10.80;99.90
15717;DHT22;7960;50.908;4.204;2022-11-18T15:42:37;10.80;99.90
15717;DHT22;7960;50.908;4.204;2022-11-18T15:45:05;10.80;99.90
15717;DHT22;7960;50.908;4.204;2022-11-18T15:47:32;10.80;99.90
15717;DHT22;7960;50.908;4.204;2022-11-18T15:49:58;10.80;99.90
15717;DHT22;7960;50.908;4.204;2022-11-18T15:52:25;10.70;99.90
15717;DHT22;7960;50.908;4.204;2022-11-18T15:54:53;10.70;99.90
15717;DHT22;7960;50.908;4.204;2022-11-18T15:57:20;10.70;99.90
15717;DHT22;7960;50.908;4.204;2022-11-18T15:59:48;10.70;99.90
15717;DHT22;7960;50.908;4.204;2022-11-18T16:02:15;10.50;99.90
15717;DHT22;7960;50.908;4.204;2022-11-18T16:04:42;10.50;99.90
15717;DHT22;7960;50.908;4.204;2022-11-18T16:07:09;10.50;99.90
15717;DHT22;7960;50.908;4.204;2022-11-18T16:09:36;10.50;99.90
15717;DHT22;7960;50.908;4.204;2022-11-18T16:12:20;10.50;99.90
15717;DHT22;7960;50.908;4.204;2022-11-18T16:15:06;10.50;99.90
15717;DHT22;7960;50.908;4.204;2022-11-18T16:17:52;10.50;99.90
15717;DHT22;7960;50.908;4.204;2022-11-18T16:20:19;10.50;99.90
15717;DHT22;7960;50.908;4.204;2022-11-18T16:22:46;10.60;99.90
15717;DHT22;7960;50.908;4.204;2022-11-18T16:25:13;10.50;99.90
15717;DHT22;7960;50.908;4.204;2022-11-18T16:27:40;10.60;99.90
15717;DHT22;7960;50.908;4.204;2022-11-18T16:30:09;10.50;99.90
15717;DHT22;7960;50.908;4.204;2022-11-18T16:32:56;10.50;99.90
15717;DHT22;7960;50.908;4.204;2022-11-18T16:35:24;10.50;99.90
15717;DHT22;7960;50.908;4.204;2022-11-18T16:37:52;10.50;99.90